Hatley, WI (54440)

4:17 AM CDT on July 29, 2016 (GMT -0500)
Weston Weather Station | | Change Station

Elev 1214 ft 44.91 °N, 89.55 °W | Updated 8 minutes ago

Overcast
Overcast
59.4 °F
Feels Like 59.4 °F
N
0.0
Wind Variable Wind from NNE

Today
High -- | Low -- °F
--% Chance of Precip.
Yesterday
High -- | Low -- °F
Precip. -- in
Pressure 30.05 in
Visibility 10.0 miles
Clouds Overcast 5000 ft
Dew Point 55 °F
Humidity 85%
Rainfall 0.00 in
Snow Depth Not available.
5:40 AM 8:26 PM
Waning Crescent, 23% visible
METAR KAUW 290854Z AUTO 01004KT 10SM OVC050 16/12 A3004 RMK AO2 SLP174 T01610117 57002
Pressure 30.05 in
Visibility 10.0 miles
Clouds Overcast 5000 ft
Dew Point 55 °F
Humidity 85%
Rainfall 0.00 in
Snow Depth Not available.
5:40 AM 8:26 PM
Waning Crescent, 23% visible
METAR KAUW 290854Z AUTO 01004KT 10SM OVC050 16/12 A3004 RMK AO2 SLP174 T01610117 57002

10-Day Weather Forecast

Almanac

Astronomy

Jul. 29, 2016 Rise Set
Actual Time
Civil Twilight
Nautical Twilight
Astronomical Twilight
Moon
Length of Visible Light
Length of Day
Tomorrow will be .
, % of the Moon is Illuminated

Today's Extremes

State Highs State Lows

Community

WunderPhotos

Upload Photos

1,928,300 photos uploaded!

WunderBlog® & News

Nearby

Air Quality

  Air Quality AQ Index Pollutant
Not available.

Snow Depth

Station Depth Elevation

Earthquake Activity

City Distance Mag. Time & Date
Minimum magnitude displayed is 2.5.

Coastal Water Temperatures

Place Temperature

Stations

Nearby Weather Stations

Station Location Temp. Windchill Dew Point Humidity Wind Precip. Elev Updated Type
                   

Watches & Warnings

There are currently no watches in effect.